sensor_id;sensor_type;location;lat;lon;timestamp;P1;durP1;ratioP1;P2;durP2;ratioP2
69625;SDS011;56847;51.984;5.088;2022-09-01T00:02:30;6.75;;;1.67;;
69625;SDS011;56847;51.984;5.088;2022-09-01T00:04:59;4.10;;;2.10;;
69625;SDS011;56847;51.984;5.088;2022-09-01T00:07:27;5.00;;;1.73;;
69625;SDS011;56847;51.984;5.088;2022-09-01T00:09:56;3.85;;;1.92;;
69625;SDS011;56847;51.984;5.088;2022-09-01T00:12:25;8.30;;;2.13;;
69625;SDS011;56847;51.984;5.088;2022-09-01T00:14:52;6.03;;;1.58;;
69625;SDS011;56847;51.984;5.088;2022-09-01T00:17:19;6.10;;;1.90;;
69625;SDS011;56847;51.984;5.088;2022-09-01T00:19:47;2.15;;;1.48;;
69625;SDS011;56847;51.984;5.088;2022-09-01T00:22:14;6.10;;;2.13;;
69625;SDS011;56847;51.984;5.088;2022-09-01T00:24:41;2.97;;;2.17;;
69625;SDS011;56847;51.984;5.088;2022-09-01T00:27:08;11.90;;;2.25;;
69625;SDS011;56847;51.984;5.088;2022-09-01T00:29:35;4.47;;;2.28;;
69625;SDS011;56847;51.984;5.088;2022-09-01T00:32:02;4.45;;;2.25;;
69625;SDS011;56847;51.984;5.088;2022-09-01T00:34:30;3.05;;;2.08;;
69625;SDS011;56847;51.984;5.088;2022-09-01T00:36:57;4.93;;;1.90;;
69625;SDS011;56847;51.984;5.088;2022-09-01T00:39:24;7.32;;;2.08;;
69625;SDS011;56847;51.984;5.088;2022-09-01T00:41:52;5.43;;;2.03;;
69625;SDS011;56847;51.984;5.088;2022-09-01T00:44:20;4.75;;;2.00;;
69625;SDS011;56847;51.984;5.088;2022-09-01T00:46:57;5.30;;;2.00;;
69625;SDS011;56847;51.984;5.088;2022-09-01T00:49:27;3.07;;;1.70;;
69625;SDS011;56847;51.984;5.088;2022-09-01T00:52:03;4.07;;;1.70;;
69625;SDS011;56847;51.984;5.088;2022-09-01T00:54:35;5.68;;;2.33;;
69625;SDS011;56847;51.984;5.088;2022-09-01T00:57:06;3.58;;;1.85;;
69625;SDS011;56847;51.984;5.088;2022-09-01T00:59:35;15.20;;;2.40;;
69625;SDS011;56847;51.984;5.088;2022-09-01T01:02:08;5.17;;;2.07;;
69625;SDS011;56847;51.984;5.088;2022-09-01T01:04:36;3.03;;;2.10;;
69625;SDS011;56847;51.984;5.088;2022-09-01T01:07:03;4.07;;;2.10;;
69625;SDS011;56847;51.984;5.088;2022-09-01T01:09:32;2.42;;;1.95;;
69625;SDS011;56847;51.984;5.088;2022-09-01T01:12:04;7.55;;;2.65;;
69625;SDS011;56847;51.984;5.088;2022-09-01T01:14:34;3.50;;;2.07;;
69625;SDS011;56847;51.984;5.088;2022-09-01T01:17:02;3.97;;;2.20;;
69625;SDS011;56847;51.984;5.088;2022-09-01T01:19:43;12.30;;;2.38;;
69625;SDS011;56847;51.984;5.088;2022-09-01T01:22:38;3.33;;;2.10;;
69625;SDS011;56847;51.984;5.088;2022-09-01T01:25:42;4.63;;;2.60;;
69625;SDS011;56847;51.984;5.088;2022-09-01T01:28:16;4.43;;;1.90;;
69625;SDS011;56847;51.984;5.088;2022-09-01T01:30:55;2.33;;;2.10;;
69625;SDS011;56847;51.984;5.088;2022-09-01T01:33:32;10.00;;;2.20;;
69625;SDS011;56847;51.984;5.088;2022-09-01T01:36:10;4.25;;;2.30;;
69625;SDS011;56847;51.984;5.088;2022-09-01T01:38:40;4.93;;;2.00;;
69625;SDS011;56847;51.984;5.088;2022-09-01T01:41:09;3.53;;;2.10;;
69625;SDS011;56847;51.984;5.088;2022-09-01T01:43:37;3.80;;;2.28;;
69625;SDS011;56847;51.984;5.088;2022-09-01T01:46:05;3.75;;;2.45;;
69625;SDS011;56847;51.984;5.088;2022-09-01T01:48:37;6.45;;;1.88;;
69625;SDS011;56847;51.984;5.088;2022-09-01T01:51:07;5.40;;;1.88;;
69625;SDS011;56847;51.984;5.088;2022-09-01T01:53:36;4.67;;;1.70;;
69625;SDS011;56847;51.984;5.088;2022-09-01T01:56:04;5.40;;;2.03;;
69625;SDS011;56847;51.984;5.088;2022-09-01T01:58:33;5.45;;;2.53;;
69625;SDS011;56847;51.984;5.088;2022-09-01T02:01:07;5.57;;;2.30;;
69625;SDS011;56847;51.984;5.088;2022-09-01T02:03:37;3.08;;;2.78;;
69625;SDS011;56847;51.984;5.088;2022-09-01T02:06:06;3.87;;;2.13;;
69625;SDS011;56847;51.984;5.088;2022-09-01T02:08:36;4.97;;;2.70;;
69625;SDS011;56847;51.984;5.088;2022-09-01T02:11:04;8.63;;;2.80;;
69625;SDS011;56847;51.984;5.088;2022-09-01T02:13:32;4.75;;;2.55;;
69625;SDS011;56847;51.984;5.088;2022-09-01T02:16:04;3.22;;;2.38;;
69625;SDS011;56847;51.984;5.088;2022-09-01T02:18:41;4.23;;;2.50;;
69625;SDS011;56847;51.984;5.088;2022-09-01T02:21:17;5.20;;;2.20;;
69625;SDS011;56847;51.984;5.088;2022-09-01T02:23:47;6.50;;;2.22;;
69625;SDS011;56847;51.984;5.088;2022-09-01T02:26:30;6.30;;;2.60;;
69625;SDS011;56847;51.984;5.088;2022-09-01T02:29:09;9.98;;;2.65;;
69625;SDS011;56847;51.984;5.088;2022-09-01T02:31:54;2.90;;;2.13;;
69625;SDS011;56847;51.984;5.088;2022-09-01T02:34:23;3.05;;;1.70;;
69625;SDS011;56847;51.984;5.088;2022-09-01T02:36:53;8.02;;;2.83;;
69625;SDS011;56847;51.984;5.088;2022-09-01T02:39:24;12.15;;;2.40;;
69625;SDS011;56847;51.984;5.088;2022-09-01T02:41:54;3.53;;;1.95;;
69625;SDS011;56847;51.984;5.088;2022-09-01T02:44:24;5.90;;;2.00;;
69625;SDS011;56847;51.984;5.088;2022-09-01T02:46:54;7.53;;;2.67;;
69625;SDS011;56847;51.984;5.088;2022-09-01T02:49:23;6.50;;;2.80;;
69625;SDS011;56847;51.984;5.088;2022-09-01T02:51:51;9.85;;;2.20;;
69625;SDS011;56847;51.984;5.088;2022-09-01T02:54:28;4.07;;;2.15;;
69625;SDS011;56847;51.984;5.088;2022-09-01T02:56:57;14.63;;;2.13;;
69625;SDS011;56847;51.984;5.088;2022-09-01T02:59:25;5.47;;;2.60;;
69625;SDS011;56847;51.984;5.088;2022-09-01T03:01:57;3.35;;;2.60;;
69625;SDS011;56847;51.984;5.088;2022-09-01T03:04:24;4.95;;;2.42;;
69625;SDS011;56847;51.984;5.088;2022-09-01T03:06:52;6.80;;;2.13;;
69625;SDS011;56847;51.984;5.088;2022-09-01T03:09:21;4.00;;;2.13;;
69625;SDS011;56847;51.984;5.088;2022-09-01T03:11:50;3.95;;;2.13;;
69625;SDS011;56847;51.984;5.088;2022-09-01T03:14:19;3.95;;;2.40;;
69625;SDS011;56847;51.984;5.088;2022-09-01T03:16:47;3.97;;;2.50;;
69625;SDS011;56847;51.984;5.088;2022-09-01T03:19:15;4.13;;;2.72;;
69625;SDS011;56847;51.984;5.088;2022-09-01T03:21:44;3.87;;;3.20;;
69625;SDS011;56847;51.984;5.088;2022-09-01T03:24:17;5.95;;;2.85;;
69625;SDS011;56847;51.984;5.088;2022-09-01T03:26:45;5.20;;;3.20;;
69625;SDS011;56847;51.984;5.088;2022-09-01T03:29:16;5.97;;;3.17;;
69625;SDS011;56847;51.984;5.088;2022-09-01T03:31:44;5.03;;;2.88;;
69625;SDS011;56847;51.984;5.088;2022-09-01T03:34:12;7.03;;;3.03;;
69625;SDS011;56847;51.984;5.088;2022-09-01T03:36:46;4.90;;;3.22;;
69625;SDS011;56847;51.984;5.088;2022-09-01T03:39:34;9.00;;;2.80;;
69625;SDS011;56847;51.984;5.088;2022-09-01T03:42:01;4.90;;;2.85;;
69625;SDS011;56847;51.984;5.088;2022-09-01T03:44:28;10.95;;;2.85;;
69625;SDS011;56847;51.984;5.088;2022-09-01T03:46:55;4.87;;;2.87;;
69625;SDS011;56847;51.984;5.088;2022-09-01T03:49:23;7.53;;;2.60;;
69625;SDS011;56847;51.984;5.088;2022-09-01T03:51:54;6.30;;;2.47;;
69625;SDS011;56847;51.984;5.088;2022-09-01T03:54:24;5.53;;;2.75;;
69625;SDS011;56847;51.984;5.088;2022-09-01T03:56:55;7.25;;;3.10;;
69625;SDS011;56847;51.984;5.088;2022-09-01T03:59:27;4.87;;;2.87;;
69625;SDS011;56847;51.984;5.088;2022-09-01T04:01:55;5.05;;;2.90;;
69625;SDS011;56847;51.984;5.088;2022-09-01T04:04:23;4.60;;;2.72;;
69625;SDS011;56847;51.984;5.088;2022-09-01T04:06:51;8.10;;;3.22;;
69625;SDS011;56847;51.984;5.088;2022-09-01T04:09:18;4.53;;;3.22;;
69625;SDS011;56847;51.984;5.088;2022-09-01T04:11:46;8.13;;;2.63;;
69625;SDS011;56847;51.984;5.088;2022-09-01T04:14:15;4.78;;;2.50;;
69625;SDS011;56847;51.984;5.088;2022-09-01T04:16:44;14.27;;;3.33;;
69625;SDS011;56847;51.984;5.088;2022-09-01T04:19:35;6.10;;;2.65;;
69625;SDS011;56847;51.984;5.088;2022-09-01T04:22:08;5.63;;;2.88;;
69625;SDS011;56847;51.984;5.088;2022-09-01T04:24:42;5.17;;;3.20;;
69625;SDS011;56847;51.984;5.088;2022-09-01T04:27:14;4.25;;;2.30;;
69625;SDS011;56847;51.984;5.088;2022-09-01T04:29:43;8.75;;;3.38;;
69625;SDS011;56847;51.984;5.088;2022-09-01T04:32:12;8.48;;;3.65;;
69625;SDS011;56847;51.984;5.088;2022-09-01T04:34:44;5.07;;;3.10;;
69625;SDS011;56847;51.984;5.088;2022-09-01T04:37:15;4.53;;;2.83;;
69625;SDS011;56847;51.984;5.088;2022-09-01T04:39:50;7.15;;;3.25;;
69625;SDS011;56847;51.984;5.088;2022-09-01T04:42:22;5.45;;;3.38;;
69625;SDS011;56847;51.984;5.088;2022-09-01T04:44:52;4.60;;;3.08;;
69625;SDS011;56847;51.984;5.088;2022-09-01T04:47:23;14.60;;;3.60;;
69625;SDS011;56847;51.984;5.088;2022-09-01T04:50:04;3.57;;;2.90;;
69625;SDS011;56847;51.984;5.088;2022-09-01T04:52:42;5.97;;;2.97;;
69625;SDS011;56847;51.984;5.088;2022-09-01T04:55:21;3.83;;;3.15;;
69625;SDS011;56847;51.984;5.088;2022-09-01T04:57:50;10.52;;;3.05;;
69625;SDS011;56847;51.984;5.088;2022-09-01T05:00:19;6.22;;;3.38;;
69625;SDS011;56847;51.984;5.088;2022-09-01T05:02:51;5.37;;;3.07;;
69625;SDS011;56847;51.984;5.088;2022-09-01T05:05:21;8.20;;;2.70;;
69625;SDS011;56847;51.984;5.088;2022-09-01T05:07:49;6.63;;;3.22;;
69625;SDS011;56847;51.984;5.088;2022-09-01T05:10:21;4.10;;;2.85;;
69625;SDS011;56847;51.984;5.088;2022-09-01T05:13:21;6.00;;;3.03;;
69625;SDS011;56847;51.984;5.088;2022-09-01T05:15:58;8.30;;;3.00;;
69625;SDS011;56847;51.984;5.088;2022-09-01T05:18:27;6.13;;;3.50;;
69625;SDS011;56847;51.984;5.088;2022-09-01T05:20:56;8.63;;;3.67;;
69625;SDS011;56847;51.984;5.088;2022-09-01T05:23:23;3.97;;;2.67;;
69625;SDS011;56847;51.984;5.088;2022-09-01T05:25:52;11.57;;;3.72;;
69625;SDS011;56847;51.984;5.088;2022-09-01T05:28:23;9.37;;;3.13;;
69625;SDS011;56847;51.984;5.088;2022-09-01T05:30:50;11.85;;;3.25;;
69625;SDS011;56847;51.984;5.088;2022-09-01T05:33:21;8.55;;;3.63;;
69625;SDS011;56847;51.984;5.088;2022-09-01T05:35:53;14.35;;;2.88;;
69625;SDS011;56847;51.984;5.088;2022-09-01T05:38:21;9.25;;;3.10;;
69625;SDS011;56847;51.984;5.088;2022-09-01T05:40:55;8.90;;;2.83;;
69625;SDS011;56847;51.984;5.088;2022-09-01T05:43:24;7.55;;;2.80;;
69625;SDS011;56847;51.984;5.088;2022-09-01T05:45:53;7.05;;;3.63;;
69625;SDS011;56847;51.984;5.088;2022-09-01T05:48:33;5.18;;;2.70;;
69625;SDS011;56847;51.984;5.088;2022-09-01T05:51:07;7.15;;;4.40;;
69625;SDS011;56847;51.984;5.088;2022-09-01T05:53:55;4.70;;;3.37;;
69625;SDS011;56847;51.984;5.088;2022-09-01T05:56:26;11.85;;;3.63;;
69625;SDS011;56847;51.984;5.088;2022-09-01T05:58:54;11.63;;;3.28;;
69625;SDS011;56847;51.984;5.088;2022-09-01T06:01:46;7.47;;;2.55;;
69625;SDS011;56847;51.984;5.088;2022-09-01T06:04:16;9.95;;;3.22;;
69625;SDS011;56847;51.984;5.088;2022-09-01T06:06:46;10.07;;;3.10;;
69625;SDS011;56847;51.984;5.088;2022-09-01T06:09:31;5.15;;;2.80;;
69625;SDS011;56847;51.984;5.088;2022-09-01T06:11:59;20.25;;;3.83;;
69625;SDS011;56847;51.984;5.088;2022-09-01T06:14:27;11.73;;;3.28;;
69625;SDS011;56847;51.984;5.088;2022-09-01T06:16:54;8.05;;;3.13;;
69625;SDS011;56847;51.984;5.088;2022-09-01T06:19:21;8.57;;;3.23;;
69625;SDS011;56847;51.984;5.088;2022-09-01T06:21:48;11.73;;;3.22;;
69625;SDS011;56847;51.984;5.088;2022-09-01T06:24:16;9.43;;;3.15;;
69625;SDS011;56847;51.984;5.088;2022-09-01T06:26:43;8.23;;;2.67;;
69625;SDS011;56847;51.984;5.088;2022-09-01T06:29:12;6.00;;;2.83;;
69625;SDS011;56847;51.984;5.088;2022-09-01T06:31:46;9.50;;;2.23;;
69625;SDS011;56847;51.984;5.088;2022-09-01T06:34:18;12.93;;;3.85;;
69625;SDS011;56847;51.984;5.088;2022-09-01T06:36:46;6.15;;;3.83;;
69625;SDS011;56847;51.984;5.088;2022-09-01T06:39:15;6.70;;;2.90;;
69625;SDS011;56847;51.984;5.088;2022-09-01T06:41:49;10.52;;;3.30;;
69625;SDS011;56847;51.984;5.088;2022-09-01T06:44:22;8.00;;;2.90;;
69625;SDS011;56847;51.984;5.088;2022-09-01T06:46:58;8.32;;;2.55;;
69625;SDS011;56847;51.984;5.088;2022-09-01T06:49:25;6.10;;;3.15;;
69625;SDS011;56847;51.984;5.088;2022-09-01T06:51:59;3.65;;;3.20;;
69625;SDS011;56847;51.984;5.088;2022-09-01T06:54:29;5.25;;;3.38;;
69625;SDS011;56847;51.984;5.088;2022-09-01T06:57:00;5.83;;;2.40;;
69625;SDS011;56847;51.984;5.088;2022-09-01T06:59:49;8.88;;;2.63;;
69625;SDS011;56847;51.984;5.088;2022-09-01T07:02:18;6.20;;;2.95;;
69625;SDS011;56847;51.984;5.088;2022-09-01T07:05:29;4.80;;;3.03;;
69625;SDS011;56847;51.984;5.088;2022-09-01T07:08:28;6.30;;;2.92;;
69625;SDS011;56847;51.984;5.088;2022-09-01T07:11:06;4.50;;;2.87;;
69625;SDS011;56847;51.984;5.088;2022-09-01T07:14:02;3.85;;;2.28;;
69625;SDS011;56847;51.984;5.088;2022-09-01T07:16:46;4.95;;;2.58;;
69625;SDS011;56847;51.984;5.088;2022-09-01T07:19:19;5.35;;;3.25;;
69625;SDS011;56847;51.984;5.088;2022-09-01T07:21:52;8.57;;;2.70;;
69625;SDS011;56847;51.984;5.088;2022-09-01T07:24:43;3.50;;;2.00;;
69625;SDS011;56847;51.984;5.088;2022-09-01T07:27:40;5.00;;;2.53;;
69625;SDS011;56847;51.984;5.088;2022-09-01T07:30:17;3.80;;;2.33;;
69625;SDS011;56847;51.984;5.088;2022-09-01T07:32:49;8.02;;;2.50;;
69625;SDS011;56847;51.984;5.088;2022-09-01T07:35:20;8.82;;;2.45;;
69625;SDS011;56847;51.984;5.088;2022-09-01T07:37:48;11.33;;;2.67;;
69625;SDS011;56847;51.984;5.088;2022-09-01T07:40:39;3.72;;;2.38;;
69625;SDS011;56847;51.984;5.088;2022-09-01T07:43:46;7.85;;;2.75;;
69625;SDS011;56847;51.984;5.088;2022-09-01T07:46:36;6.88;;;2.58;;
69625;SDS011;56847;51.984;5.088;2022-09-01T07:49:09;7.95;;;2.60;;
69625;SDS011;56847;51.984;5.088;2022-09-01T07:51:56;3.00;;;2.03;;
69625;SDS011;56847;51.984;5.088;2022-09-01T07:54:25;3.55;;;2.35;;
69625;SDS011;56847;51.984;5.088;2022-09-01T07:56:53;5.82;;;2.22;;
69625;SDS011;56847;51.984;5.088;2022-09-01T07:59:22;3.92;;;2.58;;
69625;SDS011;56847;51.984;5.088;2022-09-01T08:01:59;9.82;;;2.78;;
69625;SDS011;56847;51.984;5.088;2022-09-01T08:04:31;3.70;;;2.10;;
69625;SDS011;56847;51.984;5.088;2022-09-01T08:07:00;7.47;;;1.70;;
69625;SDS011;56847;51.984;5.088;2022-09-01T08:09:27;6.70;;;2.58;;
69625;SDS011;56847;51.984;5.088;2022-09-01T08:12:05;5.15;;;1.98;;
69625;SDS011;56847;51.984;5.088;2022-09-01T08:14:38;4.70;;;2.40;;
69625;SDS011;56847;51.984;5.088;2022-09-01T08:17:05;3.13;;;2.27;;
69625;SDS011;56847;51.984;5.088;2022-09-01T08:19:54;5.95;;;2.45;;
69625;SDS011;56847;51.984;5.088;2022-09-01T08:22:41;6.30;;;2.35;;
69625;SDS011;56847;51.984;5.088;2022-09-01T08:25:18;6.63;;;2.10;;
69625;SDS011;56847;51.984;5.088;2022-09-01T08:27:51;4.50;;;2.70;;
69625;SDS011;56847;51.984;5.088;2022-09-01T08:30:25;4.77;;;2.20;;
69625;SDS011;56847;51.984;5.088;2022-09-01T08:32:53;3.03;;;2.33;;
69625;SDS011;56847;51.984;5.088;2022-09-01T08:35:20;6.25;;;2.10;;
69625;SDS011;56847;51.984;5.088;2022-09-01T08:37:47;10.98;;;2.40;;
69625;SDS011;56847;51.984;5.088;2022-09-01T08:40:16;12.18;;;2.03;;
69625;SDS011;56847;51.984;5.088;2022-09-01T08:43:09;6.90;;;2.17;;
69625;SDS011;56847;51.984;5.088;2022-09-01T08:45:55;6.53;;;2.33;;
69625;SDS011;56847;51.984;5.088;2022-09-01T08:48:26;4.22;;;1.60;;
69625;SDS011;56847;51.984;5.088;2022-09-01T08:51:28;6.38;;;2.20;;
69625;SDS011;56847;51.984;5.088;2022-09-01T08:54:09;2.85;;;1.90;;
69625;SDS011;56847;51.984;5.088;2022-09-01T08:57:08;7.37;;;1.87;;
69625;SDS011;56847;51.984;5.088;2022-09-01T08:59:58;6.38;;;1.77;;
69625;SDS011;56847;51.984;5.088;2022-09-01T09:02:34;4.88;;;2.10;;
69625;SDS011;56847;51.984;5.088;2022-09-01T09:11:00;2.70;;;1.60;;
69625;SDS011;56847;51.984;5.088;2022-09-01T09:16:36;5.03;;;2.17;;
69625;SDS011;56847;51.984;5.088;2022-09-01T09:19:07;9.20;;;2.10;;
69625;SDS011;56847;51.984;5.088;2022-09-01T09:21:45;4.65;;;1.90;;
69625;SDS011;56847;51.984;5.088;2022-09-01T09:27:16;4.88;;;1.95;;
69625;SDS011;56847;51.984;5.088;2022-09-01T09:29:56;7.22;;;1.65;;
69625;SDS011;56847;51.984;5.088;2022-09-01T09:35:38;4.18;;;2.38;;
69625;SDS011;56847;51.984;5.088;2022-09-01T09:43:56;5.70;;;2.33;;
69625;SDS011;56847;51.984;5.088;2022-09-01T09:46:40;6.75;;;2.20;;
69625;SDS011;56847;51.984;5.088;2022-09-01T09:54:40;9.20;;;2.25;;
69625;SDS011;56847;51.984;5.088;2022-09-01T09:57:31;4.97;;;2.33;;
69625;SDS011;56847;51.984;5.088;2022-09-01T10:03:04;9.95;;;1.80;;
69625;SDS011;56847;51.984;5.088;2022-09-01T10:08:10;7.53;;;2.00;;
69625;SDS011;56847;51.984;5.088;2022-09-01T10:21:25;5.60;;;2.42;;
69625;SDS011;56847;51.984;5.088;2022-09-01T10:27:00;9.35;;;2.05;;
69625;SDS011;56847;51.984;5.088;2022-09-01T10:29:40;2.17;;;1.93;;
69625;SDS011;56847;51.984;5.088;2022-09-01T10:32:20;7.20;;;1.60;;
69625;SDS011;56847;51.984;5.088;2022-09-01T10:35:02;4.28;;;1.85;;
69625;SDS011;56847;51.984;5.088;2022-09-01T10:37:31;3.03;;;1.50;;
69625;SDS011;56847;51.984;5.088;2022-09-01T10:41:00;4.28;;;1.77;;
69625;SDS011;56847;51.984;5.088;2022-09-01T10:45:52;11.77;;;2.00;;
69625;SDS011;56847;51.984;5.088;2022-09-01T10:48:30;5.10;;;2.00;;
69625;SDS011;56847;51.984;5.088;2022-09-01T10:53:53;17.23;;;1.90;;
69625;SDS011;56847;51.984;5.088;2022-09-01T10:56:25;5.67;;;2.10;;
69625;SDS011;56847;51.984;5.088;2022-09-01T10:59:10;6.90;;;1.85;;
69625;SDS011;56847;51.984;5.088;2022-09-01T11:18:07;3.22;;;1.52;;
69625;SDS011;56847;51.984;5.088;2022-09-01T11:20:53;4.03;;;1.90;;
69625;SDS011;56847;51.984;5.088;2022-09-01T11:23:25;5.00;;;2.10;;
69625;SDS011;56847;51.984;5.088;2022-09-01T11:25:56;11.73;;;1.95;;
69625;SDS011;56847;51.984;5.088;2022-09-01T11:28:47;2.97;;;1.80;;
69625;SDS011;56847;51.984;5.088;2022-09-01T11:31:23;3.60;;;1.52;;
69625;SDS011;56847;51.984;5.088;2022-09-01T11:34:13;6.15;;;2.00;;
69625;SDS011;56847;51.984;5.088;2022-09-01T11:44:44;9.55;;;1.77;;
69625;SDS011;56847;51.984;5.088;2022-09-01T11:47:34;6.38;;;2.15;;
69625;SDS011;56847;51.984;5.088;2022-09-01T11:50:17;6.90;;;2.30;;
69625;SDS011;56847;51.984;5.088;2022-09-01T11:52:53;10.73;;;2.00;;
69625;SDS011;56847;51.984;5.088;2022-09-01T11:55:34;2.88;;;1.65;;
69625;SDS011;56847;51.984;5.088;2022-09-01T11:58:03;7.43;;;1.55;;
69625;SDS011;56847;51.984;5.088;2022-09-01T12:00:35;5.15;;;1.75;;
69625;SDS011;56847;51.984;5.088;2022-09-01T12:03:20;5.03;;;1.40;;
69625;SDS011;56847;51.984;5.088;2022-09-01T12:05:54;7.23;;;1.50;;
69625;SDS011;56847;51.984;5.088;2022-09-01T12:08:31;3.20;;;1.47;;
69625;SDS011;56847;51.984;5.088;2022-09-01T12:11:05;7.43;;;1.63;;
69625;SDS011;56847;51.984;5.088;2022-09-01T12:13:32;5.80;;;1.83;;
69625;SDS011;56847;51.984;5.088;2022-09-01T12:16:01;5.63;;;1.80;;
69625;SDS011;56847;51.984;5.088;2022-09-01T12:18:50;2.97;;;1.63;;
69625;SDS011;56847;51.984;5.088;2022-09-01T12:23:47;5.70;;;1.33;;
69625;SDS011;56847;51.984;5.088;2022-09-01T12:26:17;6.60;;;1.92;;
69625;SDS011;56847;51.984;5.088;2022-09-01T12:28:48;2.30;;;2.10;;
69625;SDS011;56847;51.984;5.088;2022-09-01T12:31:17;5.68;;;2.10;;
69625;SDS011;56847;51.984;5.088;2022-09-01T12:33:47;3.80;;;1.77;;
69625;SDS011;56847;51.984;5.088;2022-09-01T12:36:19;4.77;;;1.73;;
69625;SDS011;56847;51.984;5.088;2022-09-01T12:38:52;10.05;;;1.63;;
69625;SDS011;56847;51.984;5.088;2022-09-01T12:41:25;8.05;;;2.10;;
69625;SDS011;56847;51.984;5.088;2022-09-01T12:47:00;2.85;;;1.67;;
69625;SDS011;56847;51.984;5.088;2022-09-01T12:49:34;8.17;;;1.63;;
69625;SDS011;56847;51.984;5.088;2022-09-01T12:54:51;4.25;;;1.45;;
69625;SDS011;56847;51.984;5.088;2022-09-01T13:02:43;12.10;;;2.00;;
69625;SDS011;56847;51.984;5.088;2022-09-01T13:05:27;8.40;;;1.30;;
69625;SDS011;56847;51.984;5.088;2022-09-01T13:08:09;4.55;;;1.60;;
69625;SDS011;56847;51.984;5.088;2022-09-01T13:10:38;6.40;;;1.77;;
69625;SDS011;56847;51.984;5.088;2022-09-01T13:13:10;6.93;;;1.48;;
69625;SDS011;56847;51.984;5.088;2022-09-01T13:15:40;4.93;;;1.83;;
69625;SDS011;56847;51.984;5.088;2022-09-01T13:18:10;2.10;;;1.73;;
69625;SDS011;56847;51.984;5.088;2022-09-01T13:20:37;8.60;;;1.67;;
69625;SDS011;56847;51.984;5.088;2022-09-01T13:23:04;3.47;;;1.77;;
69625;SDS011;56847;51.984;5.088;2022-09-01T13:25:32;4.25;;;2.00;;
69625;SDS011;56847;51.984;5.088;2022-09-01T13:27:59;5.32;;;1.70;;
69625;SDS011;56847;51.984;5.088;2022-09-01T13:30:28;4.28;;;1.67;;
69625;SDS011;56847;51.984;5.088;2022-09-01T13:32:55;2.40;;;1.77;;
69625;SDS011;56847;51.984;5.088;2022-09-01T13:35:42;14.57;;;1.40;;
69625;SDS011;56847;51.984;5.088;2022-09-01T13:38:09;6.32;;;2.00;;
69625;SDS011;56847;51.984;5.088;2022-09-01T13:40:37;2.80;;;1.40;;
69625;SDS011;56847;51.984;5.088;2022-09-01T13:43:04;4.00;;;1.77;;
69625;SDS011;56847;51.984;5.088;2022-09-01T13:45:31;7.00;;;1.80;;
69625;SDS011;56847;51.984;5.088;2022-09-01T13:47:59;3.83;;;1.83;;
69625;SDS011;56847;51.984;5.088;2022-09-01T13:50:43;2.13;;;1.38;;
69625;SDS011;56847;51.984;5.088;2022-09-01T13:53:31;2.00;;;1.55;;
69625;SDS011;56847;51.984;5.088;2022-09-01T13:55:58;5.18;;;1.83;;
69625;SDS011;56847;51.984;5.088;2022-09-01T13:58:25;4.82;;;1.45;;
69625;SDS011;56847;51.984;5.088;2022-09-01T14:00:52;6.43;;;1.40;;
69625;SDS011;56847;51.984;5.088;2022-09-01T14:03:21;5.67;;;1.83;;
69625;SDS011;56847;51.984;5.088;2022-09-01T14:05:49;2.50;;;1.30;;
69625;SDS011;56847;51.984;5.088;2022-09-01T14:08:17;2.78;;;1.25;;
69625;SDS011;56847;51.984;5.088;2022-09-01T14:10:48;4.97;;;1.70;;
69625;SDS011;56847;51.984;5.088;2022-09-01T14:13:17;3.47;;;2.13;;
69625;SDS011;56847;51.984;5.088;2022-09-01T14:15:49;2.77;;;1.60;;
69625;SDS011;56847;51.984;5.088;2022-09-01T14:18:19;6.03;;;2.03;;
69625;SDS011;56847;51.984;5.088;2022-09-01T14:20:48;3.08;;;1.58;;
69625;SDS011;56847;51.984;5.088;2022-09-01T14:23:17;2.50;;;1.70;;
69625;SDS011;56847;51.984;5.088;2022-09-01T14:25:45;2.78;;;1.70;;
69625;SDS011;56847;51.984;5.088;2022-09-01T14:28:15;2.38;;;1.50;;
69625;SDS011;56847;51.984;5.088;2022-09-01T14:30:46;3.37;;;1.60;;
69625;SDS011;56847;51.984;5.088;2022-09-01T14:33:14;3.63;;;1.30;;
69625;SDS011;56847;51.984;5.088;2022-09-01T14:35:42;3.38;;;1.58;;
69625;SDS011;56847;51.984;5.088;2022-09-01T14:38:14;4.25;;;1.80;;
69625;SDS011;56847;51.984;5.088;2022-09-01T14:40:42;2.53;;;1.95;;
69625;SDS011;56847;51.984;5.088;2022-09-01T14:43:12;3.90;;;1.55;;
69625;SDS011;56847;51.984;5.088;2022-09-01T14:45:40;3.27;;;1.63;;
69625;SDS011;56847;51.984;5.088;2022-09-01T14:48:13;7.67;;;1.83;;
69625;SDS011;56847;51.984;5.088;2022-09-01T14:50:43;4.28;;;1.60;;
69625;SDS011;56847;51.984;5.088;2022-09-01T14:53:12;3.20;;;1.65;;
69625;SDS011;56847;51.984;5.088;2022-09-01T14:55:39;3.15;;;1.48;;
69625;SDS011;56847;51.984;5.088;2022-09-01T14:58:09;8.88;;;1.98;;
69625;SDS011;56847;51.984;5.088;2022-09-01T15:00:36;2.60;;;1.50;;
69625;SDS011;56847;51.984;5.088;2022-09-01T15:03:07;5.33;;;1.70;;
69625;SDS011;56847;51.984;5.088;2022-09-01T15:05:36;6.32;;;1.80;;
69625;SDS011;56847;51.984;5.088;2022-09-01T15:08:06;7.22;;;1.75;;
69625;SDS011;56847;51.984;5.088;2022-09-01T15:10:42;2.75;;;1.60;;
69625;SDS011;56847;51.984;5.088;2022-09-01T15:13:09;6.35;;;1.73;;
69625;SDS011;56847;51.984;5.088;2022-09-01T15:15:38;11.60;;;1.83;;
69625;SDS011;56847;51.984;5.088;2022-09-01T15:18:05;6.67;;;1.73;;
69625;SDS011;56847;51.984;5.088;2022-09-01T15:20:35;6.35;;;1.42;;
69625;SDS011;56847;51.984;5.088;2022-09-01T15:23:18;5.50;;;3.20;;
69625;SDS011;56847;51.984;5.088;2022-09-01T15:25:47;6.00;;;2.30;;
69625;SDS011;56847;51.984;5.088;2022-09-01T15:28:17;3.25;;;2.28;;
69625;SDS011;56847;51.984;5.088;2022-09-01T15:30:45;5.00;;;2.20;;
69625;SDS011;56847;51.984;5.088;2022-09-01T15:33:12;3.57;;;1.60;;
69625;SDS011;56847;51.984;5.088;2022-09-01T15:35:41;6.38;;;1.65;;
69625;SDS011;56847;51.984;5.088;2022-09-01T15:38:10;2.65;;;1.50;;
69625;SDS011;56847;51.984;5.088;2022-09-01T15:40:44;5.68;;;2.00;;
69625;SDS011;56847;51.984;5.088;2022-09-01T15:43:23;8.75;;;2.58;;
69625;SDS011;56847;51.984;5.088;2022-09-01T15:45:51;2.10;;;1.67;;
69625;SDS011;56847;51.984;5.088;2022-09-01T15:48:18;6.47;;;2.20;;
69625;SDS011;56847;51.984;5.088;2022-09-01T15:50:45;3.60;;;1.90;;
69625;SDS011;56847;51.984;5.088;2022-09-01T15:53:13;4.00;;;1.80;;
69625;SDS011;56847;51.984;5.088;2022-09-01T15:55:40;3.10;;;2.28;;
69625;SDS011;56847;51.984;5.088;2022-09-01T15:58:14;4.82;;;2.30;;
69625;SDS011;56847;51.984;5.088;2022-09-01T16:00:43;6.13;;;1.43;;
69625;SDS011;56847;51.984;5.088;2022-09-01T16:03:11;2.47;;;1.40;;
69625;SDS011;56847;51.984;5.088;2022-09-01T16:05:38;2.78;;;1.42;;
69625;SDS011;56847;51.984;5.088;2022-09-01T16:08:06;3.60;;;1.95;;
69625;SDS011;56847;51.984;5.088;2022-09-01T16:10:37;6.93;;;2.03;;
69625;SDS011;56847;51.984;5.088;2022-09-01T16:13:05;3.30;;;1.58;;
69625;SDS011;56847;51.984;5.088;2022-09-01T16:15:33;2.67;;;1.57;;
69625;SDS011;56847;51.984;5.088;2022-09-01T16:18:17;2.47;;;2.03;;
69625;SDS011;56847;51.984;5.088;2022-09-01T16:23:44;7.15;;;1.80;;
69625;SDS011;56847;51.984;5.088;2022-09-01T16:26:17;2.63;;;1.52;;
69625;SDS011;56847;51.984;5.088;2022-09-01T16:28:47;2.55;;;1.75;;
69625;SDS011;56847;51.984;5.088;2022-09-01T16:31:22;5.10;;;2.10;;
69625;SDS011;56847;51.984;5.088;2022-09-01T16:42:33;3.78;;;1.50;;
69625;SDS011;56847;51.984;5.088;2022-09-01T16:45:14;5.97;;;2.13;;
69625;SDS011;56847;51.984;5.088;2022-09-01T16:48:12;3.53;;;1.73;;
69625;SDS011;56847;51.984;5.088;2022-09-01T16:56:45;6.13;;;1.92;;
69625;SDS011;56847;51.984;5.088;2022-09-01T17:04:46;4.93;;;1.63;;
69625;SDS011;56847;51.984;5.088;2022-09-01T17:07:24;3.25;;;1.60;;
69625;SDS011;56847;51.984;5.088;2022-09-01T17:13:01;3.07;;;1.83;;
69625;SDS011;56847;51.984;5.088;2022-09-01T17:18:45;11.50;;;2.35;;
69625;SDS011;56847;51.984;5.088;2022-09-01T17:21:17;8.73;;;2.00;;